sensor_id;sensor_type;location;lat;lon;timestamp;P1;durP1;ratioP1;P2;durP2;ratioP2
37349;SDS011;23231;52.358;4.926;2023-05-10T00:02:56;61.88;;;31.63;;
37349;SDS011;23231;52.358;4.926;2023-05-10T00:07:57;59.10;;;31.00;;
37349;SDS011;23231;52.358;4.926;2023-05-10T00:12:57;62.85;;;31.65;;
37349;SDS011;23231;52.358;4.926;2023-05-10T00:17:58;62.63;;;32.55;;
37349;SDS011;23231;52.358;4.926;2023-05-10T00:22:58;61.55;;;32.97;;
37349;SDS011;23231;52.358;4.926;2023-05-10T00:27:59;70.88;;;35.20;;
37349;SDS011;23231;52.358;4.926;2023-05-10T00:33:01;57.22;;;31.23;;
37349;SDS011;23231;52.358;4.926;2023-05-10T00:38:01;53.30;;;30.85;;
37349;SDS011;23231;52.358;4.926;2023-05-10T00:43:02;72.10;;;34.65;;
37349;SDS011;23231;52.358;4.926;2023-05-10T00:48:03;62.08;;;30.45;;
37349;SDS011;23231;52.358;4.926;2023-05-10T00:53:03;55.22;;;29.27;;
37349;SDS011;23231;52.358;4.926;2023-05-10T00:58:04;61.55;;;32.17;;
37349;SDS011;23231;52.358;4.926;2023-05-10T01:03:04;56.25;;;30.95;;
37349;SDS011;23231;52.358;4.926;2023-05-10T01:08:05;50.35;;;29.83;;
37349;SDS011;23231;52.358;4.926;2023-05-10T01:13:06;48.35;;;29.27;;
37349;SDS011;23231;52.358;4.926;2023-05-10T01:18:06;55.35;;;31.13;;
37349;SDS011;23231;52.358;4.926;2023-05-10T01:34:20;53.72;;;31.92;;
37349;SDS011;23231;52.358;4.926;2023-05-10T01:39:24;68.65;;;34.90;;
37349;SDS011;23231;52.358;4.926;2023-05-10T01:49:45;63.22;;;33.72;;
37349;SDS011;23231;52.358;4.926;2023-05-10T01:54:50;66.38;;;33.15;;
37349;SDS011;23231;52.358;4.926;2023-05-10T01:59:55;65.03;;;34.00;;
37349;SDS011;23231;52.358;4.926;2023-05-10T02:04:55;69.30;;;34.67;;
37349;SDS011;23231;52.358;4.926;2023-05-10T02:09:57;65.88;;;35.47;;
37349;SDS011;23231;52.358;4.926;2023-05-10T02:14:59;80.25;;;36.38;;
37349;SDS011;23231;52.358;4.926;2023-05-10T02:20:01;67.60;;;33.78;;
37349;SDS011;23231;52.358;4.926;2023-05-10T02:25:02;69.78;;;33.80;;
37349;SDS011;23231;52.358;4.926;2023-05-10T02:30:04;77.72;;;35.33;;
37349;SDS011;23231;52.358;4.926;2023-05-10T02:35:06;82.00;;;35.70;;
37349;SDS011;23231;52.358;4.926;2023-05-10T02:40:07;66.57;;;28.58;;
37349;SDS011;23231;52.358;4.926;2023-05-10T02:45:11;72.13;;;32.65;;
37349;SDS011;23231;52.358;4.926;2023-05-10T02:50:12;69.95;;;33.75;;
37349;SDS011;23231;52.358;4.926;2023-05-10T02:55:14;59.45;;;28.73;;
37349;SDS011;23231;52.358;4.926;2023-05-10T03:00:16;60.15;;;30.20;;
37349;SDS011;23231;52.358;4.926;2023-05-10T03:05:16;58.05;;;28.58;;
37349;SDS011;23231;52.358;4.926;2023-05-10T03:10:16;69.00;;;29.45;;
37349;SDS011;23231;52.358;4.926;2023-05-10T03:20:38;62.20;;;31.40;;
37349;SDS011;23231;52.358;4.926;2023-05-10T03:25:42;61.72;;;31.83;;
37349;SDS011;23231;52.358;4.926;2023-05-10T03:30:43;75.18;;;35.88;;
37349;SDS011;23231;52.358;4.926;2023-05-10T03:35:44;67.63;;;31.83;;
37349;SDS011;23231;52.358;4.926;2023-05-10T03:40:45;71.25;;;30.50;;
37349;SDS011;23231;52.358;4.926;2023-05-10T03:45:46;55.92;;;23.33;;
37349;SDS011;23231;52.358;4.926;2023-05-10T03:50:46;57.55;;;23.08;;
37349;SDS011;23231;52.358;4.926;2023-05-10T03:55:47;50.30;;;22.40;;
37349;SDS011;23231;52.358;4.926;2023-05-10T04:00:47;48.60;;;22.80;;
37349;SDS011;23231;52.358;4.926;2023-05-10T04:05:47;47.75;;;22.38;;
37349;SDS011;23231;52.358;4.926;2023-05-10T04:10:48;46.40;;;22.67;;
37349;SDS011;23231;52.358;4.926;2023-05-10T04:15:49;48.10;;;22.27;;
37349;SDS011;23231;52.358;4.926;2023-05-10T04:20:49;52.60;;;23.00;;
37349;SDS011;23231;52.358;4.926;2023-05-10T04:25:50;44.42;;;20.90;;
37349;SDS011;23231;52.358;4.926;2023-05-10T04:30:50;53.28;;;24.13;;
37349;SDS011;23231;52.358;4.926;2023-05-10T04:35:50;55.47;;;24.45;;
37349;SDS011;23231;52.358;4.926;2023-05-10T04:40:51;55.78;;;23.08;;
37349;SDS011;23231;52.358;4.926;2023-05-10T04:45:51;52.15;;;22.77;;
37349;SDS011;23231;52.358;4.926;2023-05-10T04:50:51;57.17;;;23.73;;
37349;SDS011;23231;52.358;4.926;2023-05-10T04:55:52;54.45;;;22.98;;
37349;SDS011;23231;52.358;4.926;2023-05-10T05:00:52;43.05;;;19.02;;
37349;SDS011;23231;52.358;4.926;2023-05-10T05:05:53;43.40;;;19.52;;
37349;SDS011;23231;52.358;4.926;2023-05-10T05:10:53;40.47;;;18.88;;
37349;SDS011;23231;52.358;4.926;2023-05-10T05:15:54;42.20;;;19.20;;
37349;SDS011;23231;52.358;4.926;2023-05-10T05:20:54;37.75;;;18.50;;
37349;SDS011;23231;52.358;4.926;2023-05-10T05:25:55;38.30;;;17.98;;
37349;SDS011;23231;52.358;4.926;2023-05-10T05:30:55;39.35;;;16.90;;
37349;SDS011;23231;52.358;4.926;2023-05-10T05:35:56;33.60;;;16.45;;
37349;SDS011;23231;52.358;4.926;2023-05-10T05:40:56;36.22;;;16.77;;
37349;SDS011;23231;52.358;4.926;2023-05-10T05:45:57;33.67;;;15.73;;
37349;SDS011;23231;52.358;4.926;2023-05-10T05:50:57;30.50;;;15.48;;
37349;SDS011;23231;52.358;4.926;2023-05-10T05:55:58;28.40;;;13.75;;
37349;SDS011;23231;52.358;4.926;2023-05-10T06:00:58;26.50;;;13.00;;
37349;SDS011;23231;52.358;4.926;2023-05-10T06:05:59;27.63;;;13.93;;
37349;SDS011;23231;52.358;4.926;2023-05-10T06:11:00;23.10;;;11.60;;
37349;SDS011;23231;52.358;4.926;2023-05-10T06:16:01;23.20;;;12.65;;
37349;SDS011;23231;52.358;4.926;2023-05-10T06:21:02;27.77;;;12.68;;
37349;SDS011;23231;52.358;4.926;2023-05-10T06:26:02;25.45;;;14.25;;
37349;SDS011;23231;52.358;4.926;2023-05-10T06:31:03;27.90;;;13.82;;
37349;SDS011;23231;52.358;4.926;2023-05-10T06:36:04;30.83;;;15.82;;
37349;SDS011;23231;52.358;4.926;2023-05-10T06:41:05;31.20;;;15.85;;
37349;SDS011;23231;52.358;4.926;2023-05-10T06:46:05;30.30;;;15.65;;
37349;SDS011;23231;52.358;4.926;2023-05-10T06:51:06;25.00;;;14.57;;
37349;SDS011;23231;52.358;4.926;2023-05-10T06:56:07;27.70;;;14.43;;
37349;SDS011;23231;52.358;4.926;2023-05-10T07:01:07;28.05;;;14.52;;
37349;SDS011;23231;52.358;4.926;2023-05-10T07:06:08;23.27;;;13.48;;
37349;SDS011;23231;52.358;4.926;2023-05-10T07:11:08;25.90;;;13.07;;
37349;SDS011;23231;52.358;4.926;2023-05-10T07:16:09;23.63;;;12.98;;
37349;SDS011;23231;52.358;4.926;2023-05-10T07:21:10;20.85;;;12.20;;
37349;SDS011;23231;52.358;4.926;2023-05-10T07:26:10;25.70;;;13.60;;
37349;SDS011;23231;52.358;4.926;2023-05-10T07:31:11;22.20;;;13.25;;
37349;SDS011;23231;52.358;4.926;2023-05-10T07:36:12;23.15;;;13.00;;
37349;SDS011;23231;52.358;4.926;2023-05-10T07:41:12;22.90;;;11.30;;
37349;SDS011;23231;52.358;4.926;2023-05-10T07:46:13;23.27;;;12.77;;
37349;SDS011;23231;52.358;4.926;2023-05-10T07:51:13;22.92;;;13.35;;
37349;SDS011;23231;52.358;4.926;2023-05-10T07:56:27;22.00;;;12.90;;
37349;SDS011;23231;52.358;4.926;2023-05-10T08:01:30;19.65;;;11.07;;
37349;SDS011;23231;52.358;4.926;2023-05-10T08:06:31;18.83;;;11.02;;
37349;SDS011;23231;52.358;4.926;2023-05-10T08:11:31;16.52;;;9.65;;
37349;SDS011;23231;52.358;4.926;2023-05-10T08:16:32;13.20;;;8.60;;
37349;SDS011;23231;52.358;4.926;2023-05-10T08:21:33;13.57;;;7.82;;
37349;SDS011;23231;52.358;4.926;2023-05-10T08:26:33;11.68;;;7.07;;
37349;SDS011;23231;52.358;4.926;2023-05-10T08:31:33;9.70;;;6.78;;
37349;SDS011;23231;52.358;4.926;2023-05-10T08:36:34;9.93;;;6.13;;
37349;SDS011;23231;52.358;4.926;2023-05-10T08:41:34;9.52;;;5.78;;
37349;SDS011;23231;52.358;4.926;2023-05-10T08:46:36;12.77;;;6.10;;
37349;SDS011;23231;52.358;4.926;2023-05-10T08:51:40;10.40;;;6.32;;
37349;SDS011;23231;52.358;4.926;2023-05-10T08:56:41;10.82;;;6.05;;
37349;SDS011;23231;52.358;4.926;2023-05-10T09:01:42;11.38;;;6.75;;
37349;SDS011;23231;52.358;4.926;2023-05-10T09:06:44;11.40;;;6.78;;
37349;SDS011;23231;52.358;4.926;2023-05-10T09:11:44;12.50;;;6.47;;
37349;SDS011;23231;52.358;4.926;2023-05-10T09:16:45;9.63;;;5.97;;
37349;SDS011;23231;52.358;4.926;2023-05-10T09:21:45;9.80;;;5.07;;
37349;SDS011;23231;52.358;4.926;2023-05-10T09:26:46;7.35;;;4.55;;
37349;SDS011;23231;52.358;4.926;2023-05-10T09:31:49;7.68;;;5.10;;
37349;SDS011;23231;52.358;4.926;2023-05-10T09:36:57;10.20;;;4.85;;
37349;SDS011;23231;52.358;4.926;2023-05-10T09:42:02;9.60;;;4.93;;
37349;SDS011;23231;52.358;4.926;2023-05-10T09:47:06;9.43;;;5.40;;
37349;SDS011;23231;52.358;4.926;2023-05-10T09:52:07;9.10;;;5.20;;
37349;SDS011;23231;52.358;4.926;2023-05-10T09:57:08;9.75;;;4.90;;
37349;SDS011;23231;52.358;4.926;2023-05-10T10:02:20;8.32;;;4.20;;
37349;SDS011;23231;52.358;4.926;2023-05-10T10:07:24;7.65;;;4.43;;
37349;SDS011;23231;52.358;4.926;2023-05-10T10:12:25;7.45;;;4.70;;
37349;SDS011;23231;52.358;4.926;2023-05-10T10:17:26;8.02;;;4.30;;
37349;SDS011;23231;52.358;4.926;2023-05-10T10:22:28;8.07;;;3.70;;
37349;SDS011;23231;52.358;4.926;2023-05-10T10:27:32;7.80;;;3.67;;
37349;SDS011;23231;52.358;4.926;2023-05-10T10:32:59;6.45;;;3.38;;
37349;SDS011;23231;52.358;4.926;2023-05-10T10:38:20;8.48;;;4.40;;
37349;SDS011;23231;52.358;4.926;2023-05-10T10:43:21;10.30;;;4.53;;
37349;SDS011;23231;52.358;4.926;2023-05-10T10:48:22;7.35;;;3.90;;
37349;SDS011;23231;52.358;4.926;2023-05-10T10:53:25;7.97;;;4.18;;
37349;SDS011;23231;52.358;4.926;2023-05-10T10:58:28;6.70;;;4.33;;
37349;SDS011;23231;52.358;4.926;2023-05-10T11:03:32;7.68;;;3.88;;
37349;SDS011;23231;52.358;4.926;2023-05-10T11:08:32;6.47;;;3.72;;
37349;SDS011;23231;52.358;4.926;2023-05-10T11:13:43;8.35;;;3.92;;
37349;SDS011;23231;52.358;4.926;2023-05-10T11:19:04;9.07;;;4.15;;
37349;SDS011;23231;52.358;4.926;2023-05-10T11:24:14;7.72;;;4.57;;
37349;SDS011;23231;52.358;4.926;2023-05-10T11:29:19;8.68;;;4.72;;
37349;SDS011;23231;52.358;4.926;2023-05-10T11:34:24;12.13;;;4.90;;
37349;SDS011;23231;52.358;4.926;2023-05-10T11:39:30;9.77;;;5.13;;
37349;SDS011;23231;52.358;4.926;2023-05-10T11:44:31;12.38;;;5.70;;
37349;SDS011;23231;52.358;4.926;2023-05-10T11:49:32;12.18;;;6.00;;
37349;SDS011;23231;52.358;4.926;2023-05-10T11:54:33;11.85;;;6.72;;
37349;SDS011;23231;52.358;4.926;2023-05-10T11:59:34;16.10;;;7.07;;
37349;SDS011;23231;52.358;4.926;2023-05-10T12:04:36;12.32;;;6.10;;
37349;SDS011;23231;52.358;4.926;2023-05-10T12:09:37;12.52;;;6.72;;
37349;SDS011;23231;52.358;4.926;2023-05-10T12:14:37;10.85;;;6.20;;
37349;SDS011;23231;52.358;4.926;2023-05-10T12:19:38;11.77;;;5.55;;
37349;SDS011;23231;52.358;4.926;2023-05-10T12:24:39;10.55;;;5.30;;
37349;SDS011;23231;52.358;4.926;2023-05-10T12:29:41;12.48;;;6.07;;
37349;SDS011;23231;52.358;4.926;2023-05-10T12:34:43;11.93;;;5.75;;
37349;SDS011;23231;52.358;4.926;2023-05-10T12:39:46;10.68;;;5.43;;
37349;SDS011;23231;52.358;4.926;2023-05-10T12:44:47;11.52;;;6.50;;
37349;SDS011;23231;52.358;4.926;2023-05-10T12:49:47;10.00;;;5.85;;
37349;SDS011;23231;52.358;4.926;2023-05-10T12:54:47;13.57;;;6.07;;
37349;SDS011;23231;52.358;4.926;2023-05-10T12:59:49;10.32;;;5.20;;
37349;SDS011;23231;52.358;4.926;2023-05-10T13:04:49;7.28;;;4.28;;
37349;SDS011;23231;52.358;4.926;2023-05-10T13:09:50;7.25;;;3.72;;
37349;SDS011;23231;52.358;4.926;2023-05-10T13:14:50;7.03;;;3.22;;
37349;SDS011;23231;52.358;4.926;2023-05-10T13:19:51;9.70;;;3.17;;
37349;SDS011;23231;52.358;4.926;2023-05-10T13:24:51;6.85;;;3.55;;
37349;SDS011;23231;52.358;4.926;2023-05-10T13:29:51;6.70;;;3.28;;
37349;SDS011;23231;52.358;4.926;2023-05-10T13:34:52;6.13;;;3.15;;
37349;SDS011;23231;52.358;4.926;2023-05-10T13:39:52;6.53;;;3.75;;
37349;SDS011;23231;52.358;4.926;2023-05-10T13:44:53;8.65;;;3.55;;
37349;SDS011;23231;52.358;4.926;2023-05-10T13:49:53;8.38;;;4.10;;
37349;SDS011;23231;52.358;4.926;2023-05-10T13:54:53;9.88;;;4.97;;
37349;SDS011;23231;52.358;4.926;2023-05-10T13:59:57;12.52;;;5.65;;
37349;SDS011;23231;52.358;4.926;2023-05-10T14:04:57;9.70;;;6.05;;
37349;SDS011;23231;52.358;4.926;2023-05-10T14:09:58;11.15;;;5.90;;
37349;SDS011;23231;52.358;4.926;2023-05-10T14:14:58;10.20;;;5.78;;
37349;SDS011;23231;52.358;4.926;2023-05-10T14:19:58;12.63;;;6.90;;
37349;SDS011;23231;52.358;4.926;2023-05-10T14:24:59;11.88;;;6.40;;
37349;SDS011;23231;52.358;4.926;2023-05-10T14:30:00;10.95;;;5.15;;
37349;SDS011;23231;52.358;4.926;2023-05-10T14:35:00;8.40;;;4.68;;
37349;SDS011;23231;52.358;4.926;2023-05-10T14:40:00;8.70;;;4.47;;
37349;SDS011;23231;52.358;4.926;2023-05-10T14:45:01;8.63;;;4.05;;
37349;SDS011;23231;52.358;4.926;2023-05-10T14:50:01;6.22;;;3.63;;
37349;SDS011;23231;52.358;4.926;2023-05-10T14:55:02;5.28;;;2.90;;
37349;SDS011;23231;52.358;4.926;2023-05-10T15:00:03;7.35;;;4.30;;
37349;SDS011;23231;52.358;4.926;2023-05-10T15:05:04;9.98;;;4.53;;
37349;SDS011;23231;52.358;4.926;2023-05-10T15:10:05;7.55;;;3.75;;
37349;SDS011;23231;52.358;4.926;2023-05-10T15:15:06;6.85;;;3.95;;
37349;SDS011;23231;52.358;4.926;2023-05-10T15:20:07;9.07;;;4.72;;
37349;SDS011;23231;52.358;4.926;2023-05-10T15:25:08;6.15;;;3.10;;
37349;SDS011;23231;52.358;4.926;2023-05-10T15:30:10;8.95;;;4.20;;
37349;SDS011;23231;52.358;4.926;2023-05-10T15:35:12;10.77;;;5.25;;
37349;SDS011;23231;52.358;4.926;2023-05-10T15:40:12;10.05;;;4.70;;
37349;SDS011;23231;52.358;4.926;2023-05-10T15:45:13;8.80;;;4.55;;
37349;SDS011;23231;52.358;4.926;2023-05-10T15:50:14;9.07;;;4.80;;
37349;SDS011;23231;52.358;4.926;2023-05-10T15:55:16;8.73;;;4.53;;
37349;SDS011;23231;52.358;4.926;2023-05-10T16:00:16;8.98;;;4.28;;
37349;SDS011;23231;52.358;4.926;2023-05-10T16:05:18;10.07;;;4.85;;
37349;SDS011;23231;52.358;4.926;2023-05-10T16:10:19;6.40;;;3.70;;
37349;SDS011;23231;52.358;4.926;2023-05-10T16:15:19;8.77;;;3.70;;
37349;SDS011;23231;52.358;4.926;2023-05-10T16:20:20;7.20;;;3.50;;
37349;SDS011;23231;52.358;4.926;2023-05-10T16:25:21;6.68;;;3.72;;
37349;SDS011;23231;52.358;4.926;2023-05-10T16:30:21;6.22;;;3.22;;
37349;SDS011;23231;52.358;4.926;2023-05-10T16:35:24;6.40;;;3.63;;
37349;SDS011;23231;52.358;4.926;2023-05-10T16:40:25;7.03;;;3.60;;
37349;SDS011;23231;52.358;4.926;2023-05-10T16:45:25;8.13;;;5.00;;
37349;SDS011;23231;52.358;4.926;2023-05-10T16:50:26;9.52;;;5.72;;
37349;SDS011;23231;52.358;4.926;2023-05-10T16:55:26;11.85;;;5.75;;
37349;SDS011;23231;52.358;4.926;2023-05-10T17:00:26;7.05;;;4.65;;
37349;SDS011;23231;52.358;4.926;2023-05-10T17:05:27;7.85;;;4.63;;
37349;SDS011;23231;52.358;4.926;2023-05-10T17:10:28;10.57;;;5.68;;
37349;SDS011;23231;52.358;4.926;2023-05-10T17:15:28;10.73;;;5.18;;
37349;SDS011;23231;52.358;4.926;2023-05-10T17:20:29;11.27;;;6.10;;
37349;SDS011;23231;52.358;4.926;2023-05-10T17:25:29;12.40;;;6.30;;
37349;SDS011;23231;52.358;4.926;2023-05-10T17:30:30;11.80;;;6.68;;
37349;SDS011;23231;52.358;4.926;2023-05-10T17:35:31;15.02;;;8.25;;
37349;SDS011;23231;52.358;4.926;2023-05-10T17:40:32;13.13;;;7.57;;
37349;SDS011;23231;52.358;4.926;2023-05-10T17:45:32;13.20;;;7.30;;
37349;SDS011;23231;52.358;4.926;2023-05-10T17:50:33;13.02;;;7.50;;
37349;SDS011;23231;52.358;4.926;2023-05-10T17:55:33;12.27;;;7.68;;
37349;SDS011;23231;52.358;4.926;2023-05-10T18:00:33;11.70;;;7.15;;
37349;SDS011;23231;52.358;4.926;2023-05-10T18:05:37;12.70;;;7.68;;
37349;SDS011;23231;52.358;4.926;2023-05-10T18:10:38;14.50;;;8.20;;
37349;SDS011;23231;52.358;4.926;2023-05-10T18:15:38;13.68;;;7.60;;
37349;SDS011;23231;52.358;4.926;2023-05-10T18:20:41;13.63;;;7.60;;
37349;SDS011;23231;52.358;4.926;2023-05-10T18:25:41;13.73;;;8.00;;
37349;SDS011;23231;52.358;4.926;2023-05-10T18:30:42;16.95;;;8.23;;
37349;SDS011;23231;52.358;4.926;2023-05-10T18:35:42;16.92;;;9.30;;
37349;SDS011;23231;52.358;4.926;2023-05-10T18:40:43;15.88;;;8.75;;
37349;SDS011;23231;52.358;4.926;2023-05-10T18:45:44;16.10;;;8.68;;
37349;SDS011;23231;52.358;4.926;2023-05-10T18:50:44;16.15;;;9.30;;
37349;SDS011;23231;52.358;4.926;2023-05-10T18:55:44;17.85;;;10.20;;
37349;SDS011;23231;52.358;4.926;2023-05-10T19:00:45;21.77;;;11.45;;
37349;SDS011;23231;52.358;4.926;2023-05-10T19:05:46;21.15;;;10.88;;
37349;SDS011;23231;52.358;4.926;2023-05-10T19:10:47;20.88;;;11.52;;
37349;SDS011;23231;52.358;4.926;2023-05-10T19:15:59;22.55;;;12.73;;
37349;SDS011;23231;52.358;4.926;2023-05-10T19:21:20;23.83;;;12.70;;
37349;SDS011;23231;52.358;4.926;2023-05-10T19:26:20;24.30;;;13.05;;
37349;SDS011;23231;52.358;4.926;2023-05-10T19:31:21;24.15;;;12.70;;
37349;SDS011;23231;52.358;4.926;2023-05-10T19:36:22;24.10;;;12.00;;
37349;SDS011;23231;52.358;4.926;2023-05-10T19:41:22;18.33;;;10.45;;
37349;SDS011;23231;52.358;4.926;2023-05-10T19:46:22;19.20;;;11.80;;
37349;SDS011;23231;52.358;4.926;2023-05-10T19:51:23;21.13;;;12.43;;
37349;SDS011;23231;52.358;4.926;2023-05-10T19:56:23;27.02;;;13.55;;
37349;SDS011;23231;52.358;4.926;2023-05-10T20:01:25;21.40;;;11.98;;
37349;SDS011;23231;52.358;4.926;2023-05-10T20:06:26;24.60;;;14.10;;
37349;SDS011;23231;52.358;4.926;2023-05-10T20:11:26;23.63;;;13.80;;
37349;SDS011;23231;52.358;4.926;2023-05-10T20:16:26;24.60;;;13.35;;
37349;SDS011;23231;52.358;4.926;2023-05-10T20:21:27;22.50;;;13.15;;
37349;SDS011;23231;52.358;4.926;2023-05-10T20:26:27;25.67;;;13.82;;
37349;SDS011;23231;52.358;4.926;2023-05-10T20:31:28;28.98;;;15.93;;
37349;SDS011;23231;52.358;4.926;2023-05-10T20:36:28;25.58;;;14.52;;
37349;SDS011;23231;52.358;4.926;2023-05-10T20:41:29;27.45;;;15.80;;
37349;SDS011;23231;52.358;4.926;2023-05-10T20:46:29;27.10;;;15.32;;
37349;SDS011;23231;52.358;4.926;2023-05-10T20:51:30;26.75;;;15.50;;
37349;SDS011;23231;52.358;4.926;2023-05-10T20:56:32;31.42;;;16.38;;
37349;SDS011;23231;52.358;4.926;2023-05-10T21:01:32;29.23;;;16.00;;
37349;SDS011;23231;52.358;4.926;2023-05-10T21:06:33;32.22;;;17.23;;
37349;SDS011;23231;52.358;4.926;2023-05-10T21:11:33;31.80;;;17.52;;
37349;SDS011;23231;52.358;4.926;2023-05-10T21:16:40;31.75;;;17.17;;
37349;SDS011;23231;52.358;4.926;2023-05-10T21:21:40;29.98;;;17.58;;
37349;SDS011;23231;52.358;4.926;2023-05-10T21:26:41;32.08;;;15.85;;
37349;SDS011;23231;52.358;4.926;2023-05-10T21:31:41;35.00;;;17.25;;
37349;SDS011;23231;52.358;4.926;2023-05-10T21:36:41;31.80;;;17.40;;
37349;SDS011;23231;52.358;4.926;2023-05-10T21:41:42;34.08;;;17.60;;
37349;SDS011;23231;52.358;4.926;2023-05-10T21:46:42;35.58;;;17.77;;
37349;SDS011;23231;52.358;4.926;2023-05-10T21:51:43;40.80;;;20.00;;
37349;SDS011;23231;52.358;4.926;2023-05-10T21:56:43;33.80;;;17.20;;
37349;SDS011;23231;52.358;4.926;2023-05-10T22:01:44;42.55;;;20.02;;
37349;SDS011;23231;52.358;4.926;2023-05-10T22:06:44;38.55;;;19.30;;
37349;SDS011;23231;52.358;4.926;2023-05-10T22:11:44;46.42;;;20.35;;
37349;SDS011;23231;52.358;4.926;2023-05-10T22:16:45;41.50;;;18.80;;
37349;SDS011;23231;52.358;4.926;2023-05-10T22:21:45;37.45;;;17.67;;
37349;SDS011;23231;52.358;4.926;2023-05-10T22:26:45;42.15;;;19.23;;
37349;SDS011;23231;52.358;4.926;2023-05-10T22:31:46;34.40;;;17.52;;
37349;SDS011;23231;52.358;4.926;2023-05-10T22:36:46;37.00;;;17.98;;
37349;SDS011;23231;52.358;4.926;2023-05-10T22:41:48;26.38;;;14.02;;
37349;SDS011;23231;52.358;4.926;2023-05-10T22:46:48;21.65;;;11.63;;
37349;SDS011;23231;52.358;4.926;2023-05-10T22:51:49;20.00;;;10.55;;
37349;SDS011;23231;52.358;4.926;2023-05-10T22:56:49;20.67;;;10.65;;
37349;SDS011;23231;52.358;4.926;2023-05-10T23:01:50;17.08;;;10.70;;
37349;SDS011;23231;52.358;4.926;2023-05-10T23:06:50;20.70;;;11.68;;
37349;SDS011;23231;52.358;4.926;2023-05-10T23:11:50;24.92;;;12.73;;
37349;SDS011;23231;52.358;4.926;2023-05-10T23:16:51;25.23;;;12.70;;
37349;SDS011;23231;52.358;4.926;2023-05-10T23:21:51;25.48;;;12.98;;
37349;SDS011;23231;52.358;4.926;2023-05-10T23:26:51;28.92;;;14.63;;
37349;SDS011;23231;52.358;4.926;2023-05-10T23:31:52;30.65;;;16.88;;
37349;SDS011;23231;52.358;4.926;2023-05-10T23:36:52;27.35;;;14.52;;
37349;SDS011;23231;52.358;4.926;2023-05-10T23:41:53;28.52;;;15.68;;
37349;SDS011;23231;52.358;4.926;2023-05-10T23:46:53;30.38;;;15.60;;
37349;SDS011;23231;52.358;4.926;2023-05-10T23:51:54;30.70;;;14.40;;
37349;SDS011;23231;52.358;4.926;2023-05-10T23:56:54;29.30;;;15.30;;
